Time;durP1;ratioP1;P1;durP2;ratioP2;P2;SDS_P1;SDS_P2;PMS_P1;PMS_P2;Temp;Humidity;BMP_temperature;BMP_pressure;BME280_temperature;BME280_humidity;BME280_pressure;Samples;Min_cycle;Max_cycle;Signal;HPM_P1;HPM_P2
2023/04/16 00:02:10;;;;;;;7.68;5.03;;;3.60;99.90;;;;;;5039913;28;20116;-79
2023/04/16 00:04:36;;;;;;;9.13;5.20;;;3.60;99.90;;;;;;5047767;28;20084;-80
2023/04/16 00:07:01;;;;;;;8.20;5.05;;;3.60;99.90;;;;;;5041226;28;20499;-80
2023/04/16 00:09:27;;;;;;;7.43;4.93;;;3.50;99.90;;;;;;5035960;28;20551;-80
2023/04/16 00:11:53;;;;;;;7.80;5.25;;;3.50;99.90;;;;;;5049334;28;20037;-80
2023/04/16 00:14:19;;;;;;;7.57;4.97;;;3.50;99.90;;;;;;5047631;28;20503;-80
2023/04/16 00:16:44;;;;;;;8.15;5.20;;;3.60;99.90;;;;;;5051297;28;20499;-80
2023/04/16 00:19:10;;;;;;;8.13;5.28;;;3.50;99.90;;;;;;5036761;28;20040;-80
2023/04/16 00:21:36;;;;;;;7.55;4.82;;;3.50;99.90;;;;;;5052814;28;20052;-81
2023/04/16 00:24:01;;;;;;;7.10;4.68;;;3.50;99.90;;;;;;5047898;28;20043;-80
2023/04/16 00:26:27;;;;;;;8.32;5.63;;;3.50;99.90;;;;;;5050245;28;20438;-80
2023/04/16 00:28:53;;;;;;;7.18;4.95;;;3.50;99.90;;;;;;5043865;28;20049;-79
2023/04/16 00:31:29;;;;;;;7.55;4.93;;;3.50;99.90;;;;;;5052945;28;20034;-81
2023/04/16 00:33:58;;;;;;;6.65;4.50;;;3.50;99.90;;;;;;5049195;28;20422;-81
2023/04/16 00:36:26;;;;;;;6.57;4.43;;;3.50;99.90;;;;;;5042202;28;20029;-81
2023/04/16 00:38:52;;;;;;;6.72;4.20;;;3.50;99.90;;;;;;5057493;28;20038;-80
2023/04/16 00:41:17;;;;;;;7.00;4.90;;;3.50;99.90;;;;;;5051691;28;20095;-81
2023/04/16 00:43:43;;;;;;;7.15;4.50;;;3.40;99.90;;;;;;5041399;28;20037;-81
2023/04/16 00:46:09;;;;;;;7.75;5.30;;;3.50;99.90;;;;;;5044923;28;20072;-80
2023/04/16 00:48:38;;;;;;;7.63;5.28;;;3.50;99.90;;;;;;5044006;28;20071;-80
2023/04/16 00:51:05;;;;;;;6.75;4.88;;;3.50;99.90;;;;;;5041077;28;20018;-79
2023/04/16 00:53:31;;;;;;;7.57;5.00;;;3.50;99.90;;;;;;5043040;28;20033;-81
2023/04/16 00:55:57;;;;;;;8.38;4.95;;;3.50;99.90;;;;;;5044555;28;20119;-80
2023/04/16 00:58:24;;;;;;;8.70;5.68;;;3.50;99.90;;;;;;5053501;28;20068;-80
2023/04/16 01:00:50;;;;;;;7.72;5.05;;;3.50;99.90;;;;;;5048036;28;20034;-80
2023/04/16 01:03:16;;;;;;;6.88;4.78;;;3.50;99.90;;;;;;5042281;28;20565;-80
2023/04/16 01:05:44;;;;;;;8.40;5.10;;;3.60;99.90;;;;;;5042659;28;20041;-80
2023/04/16 01:08:17;;;;;;;8.35;5.15;;;3.50;99.90;;;;;;5048387;28;20396;-80
2023/04/16 01:10:44;;;;;;;8.23;4.72;;;3.60;99.90;;;;;;5056758;28;20035;-80
2023/04/16 01:13:09;;;;;;;7.53;4.65;;;3.60;99.90;;;;;;5057517;28;20512;-80
2023/04/16 01:15:36;;;;;;;8.20;5.13;;;3.60;99.90;;;;;;5046159;28;20029;-80
2023/04/16 01:18:02;;;;;;;7.65;4.47;;;3.60;99.90;;;;;;5043148;28;20041;-80
2023/04/16 01:20:28;;;;;;;6.63;4.43;;;3.60;99.90;;;;;;5042305;28;20045;-79
2023/04/16 01:22:54;;;;;;;7.22;4.22;;;3.60;99.90;;;;;;5042652;28;21698;-80
2023/04/16 01:25:20;;;;;;;8.75;4.63;;;3.50;99.90;;;;;;5046883;28;20125;-80
2023/04/16 01:27:49;;;;;;;6.95;4.57;;;3.50;99.90;;;;;;5041221;28;20407;-80
2023/04/16 01:30:15;;;;;;;8.00;5.00;;;3.50;99.90;;;;;;5047904;28;20025;-80
2023/04/16 01:32:40;;;;;;;7.60;4.80;;;3.50;99.90;;;;;;5045339;28;20034;-81
2023/04/16 01:35:06;;;;;;;7.43;4.55;;;3.50;99.90;;;;;;5047637;28;20025;-81
2023/04/16 01:37:32;;;;;;;7.93;4.88;;;3.50;99.90;;;;;;5048989;28;20037;-79
2023/04/16 01:39:58;;;;;;;7.25;4.68;;;3.50;99.90;;;;;;5043945;28;20095;-80
2023/04/16 01:42:24;;;;;;;6.53;4.72;;;3.40;99.90;;;;;;5045527;28;20038;-80
2023/04/16 01:44:49;;;;;;;7.90;5.07;;;3.40;99.90;;;;;;5038755;28;20053;-80
2023/04/16 01:47:15;;;;;;;8.82;5.60;;;3.40;99.90;;;;;;5039295;28;20057;-80
2023/04/16 01:49:42;;;;;;;8.73;5.30;;;3.40;99.90;;;;;;5042767;28;20120;-80
2023/04/16 01:52:08;;;;;;;7.05;4.85;;;3.40;99.90;;;;;;5047876;28;20041;-80
2023/04/16 01:54:34;;;;;;;7.47;4.25;;;3.40;99.90;;;;;;5048534;28;20040;-80
2023/04/16 01:57:00;;;;;;;7.90;4.55;;;3.40;99.90;;;;;;5056007;28;20033;-80
2023/04/16 01:59:33;;;;;;;5.85;3.80;;;3.40;99.90;;;;;;5040867;28;20041;-81
2023/04/16 02:02:11;;;;;;;9.32;4.90;;;3.50;99.90;;;;;;5038468;28;20120;-78
2023/04/16 02:04:41;;;;;;;7.15;4.40;;;3.50;99.90;;;;;;5039418;28;20076;-80
2023/04/16 02:07:07;;;;;;;5.97;3.87;;;3.50;99.90;;;;;;5049946;28;20038;-79
2023/04/16 02:09:34;;;;;;;8.40;5.00;;;3.50;99.90;;;;;;5044909;28;20410;-81
2023/04/16 02:12:03;;;;;;;10.13;6.13;;;3.50;99.90;;;;;;5049643;28;20030;-80
2023/04/16 02:14:30;;;;;;;9.32;5.72;;;3.50;99.90;;;;;;5036640;28;20040;-80
2023/04/16 02:16:56;;;;;;;11.07;6.30;;;3.50;99.90;;;;;;5042237;28;20033;-80
2023/04/16 02:19:21;;;;;;;11.25;7.18;;;3.50;99.90;;;;;;5039064;28;20117;-78
2023/04/16 02:21:47;;;;;;;11.48;6.50;;;3.50;99.90;;;;;;5039389;28;20507;-80
2023/04/16 02:24:13;;;;;;;14.60;8.20;;;3.40;99.90;;;;;;5050234;28;20040;-80
2023/04/16 02:26:39;;;;;;;11.10;7.20;;;3.40;99.90;;;;;;5045343;28;20034;-80
2023/04/16 02:29:05;;;;;;;9.60;5.72;;;3.40;99.90;;;;;;5046416;28;20044;-81
2023/04/16 02:31:31;;;;;;;7.07;4.78;;;3.40;99.90;;;;;;5041899;28;20025;-81
2023/04/16 02:33:57;;;;;;;8.10;4.63;;;3.40;99.90;;;;;;5038928;28;20534;-77
2023/04/16 02:36:23;;;;;;;7.78;4.45;;;3.30;99.90;;;;;;5047670;28;20038;-80
2023/04/16 02:38:48;;;;;;;7.75;4.30;;;3.40;99.90;;;;;;5045089;28;20417;-80
2023/04/16 02:41:14;;;;;;;6.13;4.00;;;3.40;99.90;;;;;;5043813;28;20053;-81
2023/04/16 02:43:40;;;;;;;6.47;4.30;;;3.40;99.90;;;;;;5054177;28;20076;-80
2023/04/16 02:46:06;;;;;;;6.50;4.07;;;3.40;99.90;;;;;;5049054;28;20049;-80
2023/04/16 02:48:31;;;;;;;4.65;3.58;;;3.40;99.90;;;;;;5040784;28;20492;-80
2023/04/16 02:50:57;;;;;;;6.15;4.05;;;3.40;99.90;;;;;;5036536;28;20036;-80
2023/04/16 02:53:23;;;;;;;5.60;4.30;;;3.50;99.90;;;;;;5042020;28;20508;-80
2023/04/16 02:55:54;;;;;;;5.40;3.92;;;3.50;99.90;;;;;;5036254;28;20431;-80
2023/04/16 02:58:20;;;;;;;7.00;4.45;;;3.50;99.90;;;;;;5036743;28;20112;-81
2023/04/16 03:00:46;;;;;;;6.07;4.47;;;3.50;99.90;;;;;;5042553;28;20077;-80
2023/04/16 03:03:12;;;;;;;5.95;4.00;;;3.50;99.90;;;;;;5035516;28;20385;-80
2023/04/16 03:05:38;;;;;;;6.03;4.10;;;3.50;99.90;;;;;;5037276;28;20063;-81
2023/04/16 03:08:04;;;;;;;5.60;3.88;;;3.50;99.90;;;;;;5037759;28;20047;-80
2023/04/16 03:10:30;;;;;;;5.72;3.70;;;3.50;99.90;;;;;;5035820;28;20036;-80
2023/04/16 03:12:56;;;;;;;8.48;5.28;;;3.50;99.90;;;;;;5035626;28;20025;-79
2023/04/16 03:15:21;;;;;;;12.23;6.72;;;3.50;99.90;;;;;;5048148;28;20050;-81
2023/04/16 03:17:47;;;;;;;11.27;6.85;;;3.50;99.90;;;;;;5044072;28;20375;-80
2023/04/16 03:20:18;;;;;;;12.50;7.82;;;3.50;99.90;;;;;;5041216;28;20099;-80
2023/04/16 03:22:45;;;;;;;9.98;6.28;;;3.50;99.90;;;;;;5039751;28;20029;-81
2023/04/16 03:25:11;;;;;;;8.77;5.82;;;3.50;99.90;;;;;;5041800;28;20041;-80
2023/04/16 03:27:38;;;;;;;8.15;5.00;;;3.50;99.90;;;;;;5034898;28;20041;-80
2023/04/16 03:30:10;;;;;;;6.43;4.40;;;3.50;99.90;;;;;;5037432;28;20100;-80
2023/04/16 03:32:36;;;;;;;7.07;4.53;;;3.50;99.90;;;;;;5041618;28;20032;-81
2023/04/16 03:35:03;;;;;;;6.95;4.35;;;3.50;99.90;;;;;;5039675;28;20089;-80
2023/04/16 03:37:29;;;;;;;6.15;4.20;;;3.50;99.90;;;;;;5043006;28;20025;-80
2023/04/16 03:39:55;;;;;;;7.22;4.57;;;3.50;99.90;;;;;;5055007;28;20037;-80
2023/04/16 03:42:21;;;;;;;7.30;4.50;;;3.50;99.90;;;;;;5054773;28;20167;-80
2023/04/16 03:44:46;;;;;;;6.78;4.40;;;3.50;99.90;;;;;;5051642;28;20060;-80
2023/04/16 03:47:12;;;;;;;6.63;4.60;;;3.50;99.90;;;;;;5030174;28;20041;-80
2023/04/16 03:49:37;;;;;;;7.68;5.07;;;3.50;99.90;;;;;;5043424;28;20120;-80
2023/04/16 03:52:03;;;;;;;6.68;4.65;;;3.50;99.90;;;;;;5034815;28;20041;-80
2023/04/16 03:54:29;;;;;;;7.28;4.90;;;3.40;99.90;;;;;;5034928;28;20302;-80
2023/04/16 03:56:55;;;;;;;9.55;5.40;;;3.40;99.90;;;;;;5041372;28;20041;-81
2023/04/16 03:59:21;;;;;;;8.60;5.07;;;3.40;99.90;;;;;;5043469;28;20045;-80
2023/04/16 04:01:47;;;;;;;8.90;5.10;;;3.40;99.90;;;;;;5046528;28;20044;-80
2023/04/16 04:04:12;;;;;;;7.40;4.95;;;3.40;99.90;;;;;;5042313;28;20108;-81
2023/04/16 04:06:38;;;;;;;7.97;4.72;;;3.50;99.90;;;;;;5055219;28;20041;-81
2023/04/16 04:09:04;;;;;;;7.18;4.75;;;3.40;99.90;;;;;;5039794;28;20175;-82
2023/04/16 04:11:29;;;;;;;6.07;3.95;;;3.40;99.90;;;;;;5034574;28;20056;-81
2023/04/16 04:13:55;;;;;;;7.88;4.93;;;3.40;99.90;;;;;;5036205;28;20034;-80
2023/04/16 04:16:21;;;;;;;8.80;5.40;;;3.40;99.90;;;;;;5036608;28;20479;-80
2023/04/16 04:18:47;;;;;;;8.45;5.65;;;3.40;99.90;;;;;;5038406;28;20045;-80
2023/04/16 04:21:12;;;;;;;8.52;5.50;;;3.40;99.90;;;;;;5034680;28;20048;-80
2023/04/16 04:23:40;;;;;;;7.53;5.00;;;3.40;99.90;;;;;;5033931;28;20037;-80
2023/04/16 04:26:06;;;;;;;8.50;5.05;;;3.40;99.90;;;;;;5040100;28;20040;-80
2023/04/16 04:28:32;;;;;;;7.80;5.20;;;3.40;99.90;;;;;;5037871;28;20399;-80
2023/04/16 04:30:59;;;;;;;7.20;5.13;;;3.40;99.90;;;;;;5047945;28;20029;-80
2023/04/16 04:33:25;;;;;;;8.35;6.07;;;3.40;99.90;;;;;;5052146;28;20045;-80
2023/04/16 04:35:52;;;;;;;11.32;5.97;;;3.40;99.90;;;;;;5038955;28;20032;-80
2023/04/16 04:38:18;;;;;;;9.52;5.75;;;3.50;99.90;;;;;;5054687;28;20052;-80
2023/04/16 04:40:45;;;;;;;8.43;5.43;;;3.50;99.90;;;;;;5054451;28;20464;-80
2023/04/16 04:43:11;;;;;;;8.05;4.78;;;3.50;99.90;;;;;;5049239;28;20419;-80
2023/04/16 04:45:37;;;;;;;8.05;4.93;;;3.40;99.90;;;;;;5050589;28;20034;-80
2023/04/16 04:48:03;;;;;;;6.53;4.38;;;3.40;99.90;;;;;;5041570;28;20044;-80
2023/04/16 04:50:28;;;;;;;8.88;5.40;;;3.40;99.90;;;;;;5050574;28;20037;-80
2023/04/16 04:52:54;;;;;;;9.55;6.35;;;3.40;99.90;;;;;;5050306;28;20083;-80
2023/04/16 04:55:20;;;;;;;10.68;6.72;;;3.40;99.90;;;;;;5035200;28;20033;-81
2023/04/16 04:57:45;;;;;;;12.02;7.20;;;3.50;99.90;;;;;;5034596;28;20057;-81
2023/04/16 05:00:11;;;;;;;11.25;7.43;;;3.40;99.90;;;;;;5034814;28;20053;-81
2023/04/16 05:02:37;;;;;;;10.73;7.00;;;3.40;99.90;;;;;;5038499;28;20041;-80
2023/04/16 05:05:04;;;;;;;10.50;6.72;;;3.50;99.90;;;;;;5048753;28;20124;-80
2023/04/16 05:07:30;;;;;;;10.25;6.38;;;3.50;99.90;;;;;;5042063;28;20038;-80
2023/04/16 05:09:56;;;;;;;9.68;6.53;;;3.50;99.90;;;;;;5046856;28;20025;-80
2023/04/16 05:12:21;;;;;;;8.20;5.63;;;3.60;99.90;;;;;;5053441;28;20034;-80
2023/04/16 05:14:47;;;;;;;9.25;5.78;;;3.60;99.90;;;;;;5038254;28;20032;-80
2023/04/16 05:17:13;;;;;;;13.10;7.22;;;3.60;99.90;;;;;;5039466;28;20041;-80
2023/04/16 05:19:38;;;;;;;10.73;7.07;;;3.50;99.90;;;;;;5038101;28;20037;-80
2023/04/16 05:22:04;;;;;;;13.10;7.45;;;3.60;99.90;;;;;;5038131;28;20045;-80
2023/04/16 05:24:30;;;;;;;9.43;6.40;;;3.60;99.90;;;;;;5049564;28;20049;-81
2023/04/16 05:26:56;;;;;;;13.25;8.02;;;3.60;99.90;;;;;;5039397;28;20045;-80
2023/04/16 05:29:21;;;;;;;14.15;7.95;;;3.70;99.90;;;;;;5035253;28;20052;-80
2023/04/16 05:31:47;;;;;;;12.02;7.05;;;3.70;99.90;;;;;;5044343;28;20060;-80
2023/04/16 05:34:13;;;;;;;12.20;7.60;;;3.70;99.90;;;;;;5055335;28;20037;-80
2023/04/16 05:36:38;;;;;;;12.00;7.78;;;3.70;99.90;;;;;;5038595;28;20506;-78
2023/04/16 05:39:04;;;;;;;10.85;7.70;;;3.70;99.90;;;;;;5035867;28;20594;-80
2023/04/16 05:41:30;;;;;;;12.77;7.90;;;3.70;99.90;;;;;;5050222;28;20557;-81
2023/04/16 05:43:56;;;;;;;10.73;7.20;;;3.70;99.90;;;;;;5041141;28;20048;-81
2023/04/16 05:46:21;;;;;;;18.50;10.68;;;3.70;99.90;;;;;;5047270;28;20073;-81
2023/04/16 05:48:47;;;;;;;15.07;9.50;;;3.80;99.90;;;;;;5041237;28;20047;-80
2023/04/16 05:51:13;;;;;;;12.90;8.07;;;3.80;99.90;;;;;;5048349;28;20530;-80
2023/04/16 05:53:39;;;;;;;9.07;6.45;;;3.80;99.90;;;;;;5050113;28;20037;-80
2023/04/16 05:56:05;;;;;;;9.63;6.03;;;3.80;99.90;;;;;;5054062;28;20025;-80
2023/04/16 05:58:31;;;;;;;13.60;7.47;;;3.80;99.90;;;;;;5044973;28;20037;-78
2023/04/16 06:00:57;;;;;;;12.20;7.20;;;3.80;99.90;;;;;;5021163;28;20040;-80
2023/04/16 06:03:23;;;;;;;11.88;7.18;;;3.80;99.90;;;;;;5037455;28;20069;-79
2023/04/16 06:05:48;;;;;;;11.05;7.13;;;3.80;99.90;;;;;;5039156;28;20034;-80
2023/04/16 06:08:14;;;;;;;11.60;6.45;;;3.80;99.90;;;;;;5049145;28;20037;-80
2023/04/16 06:10:40;;;;;;;11.35;6.55;;;3.90;99.90;;;;;;5038373;28;20038;-80
2023/04/16 06:13:05;;;;;;;11.77;7.65;;;3.90;99.90;;;;;;5049433;28;20038;-77
2023/04/16 06:15:31;;;;;;;13.48;8.57;;;4.00;99.90;;;;;;5041459;28;20055;-80
2023/04/16 06:17:57;;;;;;;13.73;8.30;;;4.00;99.90;;;;;;5050494;28;20104;-80
2023/04/16 06:20:23;;;;;;;12.85;8.35;;;4.00;99.90;;;;;;5047226;28;20405;-80
2023/04/16 06:22:49;;;;;;;11.57;7.60;;;4.10;99.90;;;;;;5039571;28;20029;-80
2023/04/16 06:25:14;;;;;;;12.10;7.70;;;4.10;99.90;;;;;;5050143;28;20032;-81
2023/04/16 06:27:40;;;;;;;13.25;7.97;;;4.10;99.90;;;;;;5049204;28;20100;-82
2023/04/16 06:30:14;;;;;;;18.08;10.27;;;4.20;99.90;;;;;;5041290;28;20116;-82
2023/04/16 06:32:40;;;;;;;12.35;8.43;;;4.30;99.90;;;;;;5042574;28;20364;-82
2023/04/16 06:35:07;;;;;;;13.13;8.20;;;4.30;99.90;;;;;;5041450;28;20108;-81
2023/04/16 06:37:32;;;;;;;14.30;8.95;;;4.40;99.90;;;;;;5039765;28;20038;-80
2023/04/16 06:39:58;;;;;;;12.93;8.05;;;4.40;99.90;;;;;;5037476;28;20053;-80
2023/04/16 06:42:24;;;;;;;13.40;8.23;;;4.40;99.90;;;;;;5040895;28;20033;-79
2023/04/16 06:44:49;;;;;;;12.32;8.77;;;4.50;99.90;;;;;;5035325;28;20049;-80
2023/04/16 06:47:15;;;;;;;14.52;9.13;;;4.50;99.90;;;;;;5041530;28;20040;-81
2023/04/16 06:49:41;;;;;;;13.27;8.65;;;4.60;99.90;;;;;;5043858;28;20041;-81
2023/04/16 06:52:07;;;;;;;13.43;9.30;;;4.60;99.90;;;;;;5050373;28;20037;-81
2023/04/16 06:54:33;;;;;;;13.23;8.57;;;4.70;99.90;;;;;;5054044;28;20404;-79
2023/04/16 06:56:58;;;;;;;12.68;7.93;;;4.70;99.90;;;;;;5053789;28;20029;-81
2023/04/16 06:59:24;;;;;;;12.23;8.38;;;4.80;99.90;;;;;;5042404;28;20398;-81
2023/04/16 07:01:51;;;;;;;12.60;7.90;;;4.80;99.90;;;;;;5044875;28;20047;-82
2023/04/16 07:04:17;;;;;;;12.80;7.78;;;4.80;99.90;;;;;;5036021;28;20037;-81
2023/04/16 07:06:42;;;;;;;12.32;7.65;;;4.80;99.90;;;;;;5055767;28;20036;-81
2023/04/16 07:09:08;;;;;;;13.32;8.57;;;4.90;99.90;;;;;;5054477;28;20367;-80
2023/04/16 07:11:34;;;;;;;11.73;8.27;;;4.90;99.90;;;;;;5044999;28;20042;-79
2023/04/16 07:14:00;;;;;;;12.15;8.40;;;5.00;99.90;;;;;;5038995;28;20040;-80
2023/04/16 07:16:26;;;;;;;13.40;9.25;;;5.10;99.90;;;;;;5041042;28;20041;-81
2023/04/16 07:18:52;;;;;;;12.70;8.60;;;5.10;99.90;;;;;;5036137;28;20037;-81
2023/04/16 07:21:17;;;;;;;10.50;7.22;;;5.20;99.90;;;;;;5045095;28;20087;-81
2023/04/16 07:23:43;;;;;;;10.25;7.00;;;5.30;99.90;;;;;;5029689;28;20042;-79
2023/04/16 07:26:10;;;;;;;9.63;6.90;;;5.30;99.90;;;;;;5044062;28;20048;-79
2023/04/16 07:28:36;;;;;;;10.85;6.55;;;5.40;99.90;;;;;;5053179;28;20037;-79
2023/04/16 07:31:02;;;;;;;12.63;7.60;;;5.50;99.90;;;;;;5037128;28;20038;-79
2023/04/16 07:33:27;;;;;;;12.57;8.63;;;5.50;99.90;;;;;;5035502;28;20060;-79
2023/04/16 07:35:53;;;;;;;9.60;7.00;;;5.50;99.90;;;;;;5036807;28;20475;-78
2023/04/16 07:38:19;;;;;;;10.68;6.85;;;5.60;99.90;;;;;;5047991;28;20049;-80
2023/04/16 07:40:45;;;;;;;10.23;6.90;;;5.60;99.90;;;;;;5038386;28;20041;-81
2023/04/16 07:43:12;;;;;;;10.02;6.50;;;5.70;99.90;;;;;;5055331;28;20116;-80
2023/04/16 07:45:38;;;;;;;8.60;5.80;;;5.80;99.90;;;;;;5050119;28;20091;-80
2023/04/16 07:48:04;;;;;;;8.13;5.70;;;5.80;99.90;;;;;;5046808;28;20434;-81
2023/04/16 07:50:30;;;;;;;9.10;6.07;;;5.80;99.90;;;;;;5042297;28;20029;-81
2023/04/16 07:52:55;;;;;;;9.52;6.60;;;5.90;99.90;;;;;;5041749;28;20037;-81
2023/04/16 07:55:21;;;;;;;12.32;7.53;;;5.90;99.90;;;;;;5035957;28;20424;-81
2023/04/16 07:57:47;;;;;;;11.18;7.38;;;6.00;99.90;;;;;;5040233;28;20088;-81
2023/04/16 08:00:13;;;;;;;11.27;7.10;;;6.10;99.90;;;;;;5043928;28;20041;-81
2023/04/16 08:02:39;;;;;;;10.98;6.70;;;6.10;99.90;;;;;;5038414;28;20048;-81
2023/04/16 08:05:06;;;;;;;10.63;7.10;;;6.10;99.90;;;;;;5034843;28;20034;-81
2023/04/16 08:07:31;;;;;;;11.65;8.00;;;6.20;99.90;;;;;;5036426;28;20033;-81
2023/04/16 08:09:57;;;;;;;10.90;7.45;;;6.20;99.90;;;;;;5034512;28;20567;-81
2023/04/16 08:12:23;;;;;;;10.88;8.07;;;6.30;99.90;;;;;;5037612;28;20055;-79
2023/04/16 08:14:49;;;;;;;10.73;7.60;;;6.30;99.90;;;;;;5044420;28;20065;-78
2023/04/16 08:17:15;;;;;;;9.63;6.47;;;6.30;99.90;;;;;;5044393;28;20036;-80
2023/04/16 08:19:43;;;;;;;8.27;6.13;;;6.30;99.90;;;;;;5039642;28;21003;-80
2023/04/16 08:22:10;;;;;;;10.15;7.00;;;6.40;99.90;;;;;;5043988;28;20037;-80
2023/04/16 08:24:36;;;;;;;9.25;6.25;;;6.50;99.90;;;;;;5047088;28;20036;-79
2023/04/16 08:27:02;;;;;;;7.95;5.50;;;6.60;99.90;;;;;;5041016;28;20049;-80
2023/04/16 08:29:27;;;;;;;8.98;6.50;;;6.60;99.90;;;;;;5036085;28;20095;-80
2023/04/16 08:31:53;;;;;;;7.72;5.22;;;6.70;99.90;;;;;;5055535;28;20030;-78
2023/04/16 08:34:19;;;;;;;8.48;5.95;;;6.70;99.90;;;;;;5049813;28;20029;-80
2023/04/16 08:36:45;;;;;;;8.25;5.65;;;6.80;99.90;;;;;;5048001;28;20046;-80
2023/04/16 08:39:11;;;;;;;8.32;5.78;;;6.80;99.90;;;;;;5054105;28;20037;-79
2023/04/16 08:41:41;;;;;;;7.68;5.40;;;6.80;99.90;;;;;;5040523;28;20041;-81
2023/04/16 08:44:10;;;;;;;8.20;5.40;;;6.80;99.90;;;;;;5048111;28;20502;-80
2023/04/16 08:46:39;;;;;;;7.53;5.25;;;6.90;99.90;;;;;;5044402;28;20466;-80
2023/04/16 08:49:06;;;;;;;7.93;5.40;;;7.00;99.90;;;;;;5042285;28;20072;-80
2023/04/16 08:51:35;;;;;;;9.50;5.72;;;7.00;99.90;;;;;;5041326;28;20495;-82
2023/04/16 08:54:13;;;;;;;7.82;5.05;;;7.00;99.90;;;;;;5045879;28;20040;-81
2023/04/16 08:56:41;;;;;;;6.97;4.95;;;7.10;99.90;;;;;;5047072;28;20056;-80
2023/04/16 08:59:08;;;;;;;7.32;4.80;;;7.10;99.90;;;;;;5044999;28;20068;-80
2023/04/16 09:01:35;;;;;;;7.57;4.38;;;7.20;99.90;;;;;;5041893;28;20073;-81
2023/04/16 09:04:01;;;;;;;6.10;4.90;;;7.20;99.90;;;;;;5039354;28;20040;-81
2023/04/16 09:06:27;;;;;;;7.05;4.20;;;7.20;99.90;;;;;;5047318;28;20045;-80
2023/04/16 09:08:54;;;;;;;6.47;4.50;;;7.30;99.90;;;;;;5046760;28;20033;-80
2023/04/16 09:11:20;;;;;;;6.63;4.80;;;7.30;99.90;;;;;;5047044;28;20026;-80
2023/04/16 09:13:46;;;;;;;6.05;4.53;;;7.30;99.90;;;;;;5049432;28;20040;-80
2023/04/16 09:16:13;;;;;;;6.40;4.43;;;7.40;99.90;;;;;;5046285;28;20111;-80
2023/04/16 09:18:40;;;;;;;6.25;4.00;;;7.40;99.90;;;;;;5050071;28;20474;-79
2023/04/16 09:21:09;;;;;;;6.60;4.13;;;7.50;99.90;;;;;;5040784;28;20112;-80
2023/04/16 09:23:37;;;;;;;6.05;4.50;;;7.60;99.90;;;;;;5042976;28;20411;-79
2023/04/16 09:26:04;;;;;;;7.07;4.72;;;7.60;99.90;;;;;;5045024;28;20119;-79
2023/04/16 09:28:44;;;;;;;6.95;4.30;;;7.70;99.90;;;;;;5045428;28;20032;-80
2023/04/16 09:31:15;;;;;;;7.20;3.97;;;7.80;99.90;;;;;;5039071;28;20040;-78
2023/04/16 09:33:42;;;;;;;4.23;3.10;;;8.00;99.90;;;;;;5050331;28;20033;-80
2023/04/16 09:36:08;;;;;;;3.72;2.65;;;8.10;99.90;;;;;;5040560;28;20518;-80
2023/04/16 09:38:48;;;;;;;3.58;2.50;;;8.10;99.90;;;;;;5048751;28;20430;-79
2023/04/16 09:41:17;;;;;;;4.88;2.70;;;8.20;99.90;;;;;;5042738;28;20025;-78
2023/04/16 09:43:57;;;;;;;4.40;2.50;;;8.30;99.90;;;;;;5042500;28;20045;-80
2023/04/16 09:46:30;;;;;;;3.95;2.80;;;8.40;99.90;;;;;;5042365;28;20499;-78
2023/04/16 09:48:56;;;;;;;6.38;2.92;;;8.40;99.90;;;;;;5041545;28;20037;-79
2023/04/16 09:51:23;;;;;;;3.50;2.50;;;8.50;99.90;;;;;;5046482;28;20463;-81
2023/04/16 09:53:52;;;;;;;3.33;2.50;;;8.50;99.90;;;;;;5042907;28;20038;-79
2023/04/16 09:56:23;;;;;;;3.78;2.40;;;8.50;99.90;;;;;;5042621;28;20029;-80
2023/04/16 09:58:49;;;;;;;4.38;2.72;;;8.60;99.90;;;;;;5042401;28;20633;-79
2023/04/16 10:01:17;;;;;;;3.67;2.50;;;8.60;99.90;;;;;;5039783;28;20054;-78
2023/04/16 10:03:48;;;;;;;3.85;2.42;;;8.60;99.90;;;;;;5040817;28;20041;-79
2023/04/16 10:06:15;;;;;;;3.45;2.00;;;8.70;99.90;;;;;;5045829;28;20037;-79
2023/04/16 10:08:47;;;;;;;3.28;2.15;;;8.70;99.90;;;;;;5040480;28;20061;-78
2023/04/16 10:11:13;;;;;;;3.33;2.13;;;8.80;99.90;;;;;;5040455;28;20044;-79
2023/04/16 10:13:39;;;;;;;3.35;2.25;;;8.80;99.90;;;;;;5042402;28;20029;-79
2023/04/16 10:16:07;;;;;;;3.80;2.38;;;8.70;99.90;;;;;;5038678;28;20135;-79
2023/04/16 10:18:37;;;;;;;2.75;1.75;;;8.80;99.90;;;;;;5042386;28;20045;-79
2023/04/16 10:21:03;;;;;;;3.15;2.20;;;8.80;99.90;;;;;;5043088;28;20052;-79
2023/04/16 10:23:29;;;;;;;3.10;1.88;;;8.90;99.90;;;;;;5045636;28;20052;-79
2023/04/16 10:25:56;;;;;;;3.25;2.00;;;8.90;99.90;;;;;;5046881;28;20034;-78
2023/04/16 10:28:22;;;;;;;3.08;1.98;;;8.90;99.90;;;;;;5055063;28;20491;-80
2023/04/16 10:30:52;;;;;;;3.10;1.67;;;8.90;99.90;;;;;;5055029;28;20052;-79
2023/04/16 10:33:26;;;;;;;2.93;1.70;;;8.90;99.90;;;;;;5040016;28;20033;-79
2023/04/16 10:36:06;;;;;;;4.13;1.70;;;9.00;99.90;;;;;;5047515;28;20267;-78
2023/04/16 10:38:31;;;;;;;2.53;1.67;;;9.00;99.90;;;;;;5048435;28;20128;-79
2023/04/16 10:40:59;;;;;;;3.83;2.03;;;9.00;99.90;;;;;;5055932;28;20057;-79
2023/04/16 10:43:25;;;;;;;2.85;1.48;;;8.90;99.90;;;;;;5054024;28;20029;-79
2023/04/16 10:45:53;;;;;;;1.80;1.17;;;8.90;99.90;;;;;;5036919;28;20033;-80
2023/04/16 10:48:18;;;;;;;2.22;1.20;;;8.90;99.90;;;;;;5047564;28;20037;-79
2023/04/16 10:50:58;;;;;;;1.80;1.13;;;8.90;99.90;;;;;;5037817;28;20048;-80
2023/04/16 10:53:26;;;;;;;2.38;1.30;;;9.00;99.90;;;;;;5054701;28;20562;-79
2023/04/16 10:56:04;;;;;;;2.38;1.00;;;9.10;99.90;;;;;;5044899;28;20041;-78
2023/04/16 10:58:33;;;;;;;3.65;1.92;;;9.30;99.90;;;;;;5047314;28;20048;-79
2023/04/16 11:01:00;;;;;;;3.90;2.22;;;9.40;99.90;;;;;;5047945;28;20022;-80
2023/04/16 11:03:31;;;;;;;3.45;2.05;;;9.50;99.90;;;;;;5038268;28;20037;-79
2023/04/16 11:06:22;;;;;;;2.58;1.50;;;9.60;99.90;;;;;;5044070;28;20053;-80
2023/04/16 11:08:49;;;;;;;;;;;9.50;99.90;;;;;;5047783;28;20053;-79
2023/04/16 11:11:16;;;;;;;2.45;1.67;;;9.60;99.90;;;;;;5046861;28;20370;-79
2023/04/16 11:13:44;;;;;;;1.98;1.35;;;9.50;99.90;;;;;;5045462;28;20042;-79
2023/04/16 11:16:14;;;;;;;2.78;1.45;;;9.60;99.90;;;;;;5038035;28;20048;-79
2023/04/16 11:18:40;;;;;;;2.85;1.33;;;9.70;99.90;;;;;;5042557;28;20041;-79
2023/04/16 11:21:10;;;;;;;2.03;1.17;;;9.70;99.90;;;;;;5037423;28;20030;-79
2023/04/16 11:23:49;;;;;;;2.30;1.15;;;9.70;99.90;;;;;;5038724;28;20042;-79
2023/04/16 11:26:26;;;;;;;1.55;0.90;;;9.70;99.90;;;;;;5055661;28;20041;-78
2023/04/16 11:28:55;;;;;;;3.55;1.38;;;9.80;99.90;;;;;;5058874;28;20107;-78
2023/04/16 11:31:22;;;;;;;1.40;0.80;;;9.80;99.90;;;;;;5042177;28;20399;-79
2023/04/16 11:33:48;;;;;;;2.88;1.25;;;9.80;99.90;;;;;;5048183;28;20032;-79
2023/04/16 11:36:14;;;;;;;1.67;1.00;;;9.80;99.90;;;;;;5047571;28;20056;-78
2023/04/16 11:38:41;;;;;;;2.30;0.82;;;9.70;99.90;;;;;;5040880;28;20064;-80
2023/04/16 11:41:08;;;;;;;1.88;0.98;;;9.60;99.90;;;;;;5041300;28;20100;-79
2023/04/16 11:43:34;;;;;;;1.30;0.70;;;9.70;99.90;;;;;;5042635;28;20089;-79
2023/04/16 11:46:01;;;;;;;3.90;0.82;;;9.80;99.90;;;;;;5045054;28;20037;-79
2023/04/16 11:48:48;;;;;;;0.98;0.57;;;9.90;99.90;;;;;;5040155;28;20038;-78
2023/04/16 11:51:14;;;;;;;2.33;0.80;;;10.10;99.90;;;;;;5045887;28;20120;-79
2023/04/16 11:53:51;;;;;;;1.30;0.68;;;10.00;99.90;;;;;;5045124;28;20049;-79
2023/04/16 11:56:35;;;;;;;1.10;0.80;;;10.10;99.90;;;;;;5046111;28;20036;-77
2023/04/16 11:59:11;;;;;;;1.10;0.70;;;9.90;99.90;;;;;;5047878;28;20112;-78
2023/04/16 12:01:38;;;;;;;1.20;0.70;;;9.90;99.90;;;;;;5053836;28;20033;-78
2023/04/16 12:04:04;;;;;;;1.10;0.70;;;9.90;99.90;;;;;;5055020;28;20116;-79
2023/04/16 12:06:33;;;;;;;1.95;0.60;;;9.90;99.90;;;;;;5047357;28;20514;-79
2023/04/16 12:08:59;;;;;;;0.77;0.50;;;9.90;99.90;;;;;;5038056;28;20045;-78
2023/04/16 12:11:39;;;;;;;1.05;0.68;;;9.90;99.90;;;;;;5040188;28;20045;-78
2023/04/16 12:14:09;;;;;;;1.92;0.60;;;10.00;99.90;;;;;;5046331;28;20029;-78
2023/04/16 12:16:35;;;;;;;1.27;0.60;;;10.00;99.90;;;;;;5044519;28;20025;-78
2023/04/16 12:19:02;;;;;;;1.52;0.90;;;10.10;99.90;;;;;;5053158;28;20574;-78
2023/04/16 12:21:47;;;;;;;1.52;0.77;;;10.30;99.90;;;;;;5050613;28;20037;-79
2023/04/16 12:24:16;;;;;;;0.77;0.50;;;10.40;99.90;;;;;;5044667;28;20057;-78
2023/04/16 12:26:56;;;;;;;1.13;0.75;;;10.50;99.90;;;;;;5042387;28;20037;-79
2023/04/16 12:29:26;;;;;;;1.00;0.65;;;10.50;99.90;;;;;;5044321;28;20393;-78
2023/04/16 12:31:53;;;;;;;1.23;0.60;;;10.40;99.90;;;;;;5045693;28;20148;-78
2023/04/16 12:34:20;;;;;;;2.08;1.23;;;10.30;99.90;;;;;;5043855;28;20049;-78
2023/04/16 12:36:47;;;;;;;2.30;1.33;;;10.30;99.90;;;;;;5045098;28;20082;-78
2023/04/16 12:39:14;;;;;;;1.52;0.80;;;10.30;99.90;;;;;;5047632;28;20495;-76
2023/04/16 12:41:42;;;;;;;1.02;0.60;;;10.20;99.90;;;;;;5040569;28;20052;-79
2023/04/16 12:44:11;;;;;;;4.53;2.22;;;10.10;99.90;;;;;;5046087;28;20495;-79
2023/04/16 12:46:40;;;;;;;1.85;0.80;;;10.00;99.90;;;;;;5043507;28;20029;-78
2023/04/16 12:49:07;;;;;;;0.70;0.40;;;9.80;99.90;;;;;;5040898;28;20037;-77
2023/04/16 12:51:33;;;;;;;0.73;0.40;;;9.70;99.90;;;;;;5047494;28;20399;-77
2023/04/16 12:54:00;;;;;;;3.55;1.70;;;9.60;99.90;;;;;;5046746;28;20031;-79